Time;durP1;ratioP1;P1;durP2;ratioP2;P2;SDS_P1;SDS_P2;PMS_P1;PMS_P2;Temp;Humidity;BMP_temperature;BMP_pressure;BME280_temperature;BME280_humidity;BME280_pressure;Samples;Min_cycle;Max_cycle;Signal;HPM_P1;HPM_P2
2022/05/14 00:01:28;;;;;;;5.00;4.03;;;17.10;51.00;;;;;;20664;6756;117670;-70
2022/05/14 00:04:03;;;;;;;4.93;3.97;;;17.00;51.50;;;;;;20573;6756;278020;-71
2022/05/14 00:06:39;;;;;;;6.53;4.43;;;17.10;51.30;;;;;;20587;6761;295105;-71
2022/05/14 00:09:14;;;;;;;4.10;3.70;;;17.40;50.70;;;;;;20911;6730;117931;-71
2022/05/14 00:14:45;;;;;;;4.40;4.00;;;17.20;51.70;;;;;;20683;6730;305843;-70
2022/05/14 00:17:21;;;;;;;4.47;4.00;;;17.40;50.60;;;;;;20673;6730;308770;-70
2022/05/14 00:19:56;;;;;;;5.73;4.30;;;17.50;50.20;;;;;;20691;6730;314702;-70
2022/05/14 00:22:32;;;;;;;6.13;4.30;;;17.60;49.30;;;;;;20495;6786;290747;-69
2022/05/14 00:25:08;;;;;;;4.07;3.67;;;17.60;49.10;;;;;;20902;6730;119833;-70
2022/05/14 00:27:45;;;;;;;5.07;4.30;;;17.30;50.10;;;;;;20865;6741;116997;-70
2022/05/14 00:30:23;;;;;;;5.67;4.60;;;16.50;52.20;;;;;;20865;6730;149091;-70
2022/05/14 00:32:58;;;;;;;6.93;4.40;;;16.50;52.10;;;;;;20636;6748;276838;-71
2022/05/14 00:35:33;;;;;;;6.20;4.20;;;16.70;52.10;;;;;;20681;6733;305691;-70
2022/05/14 00:38:09;;;;;;;4.67;3.90;;;17.00;51.80;;;;;;20838;6735;118200;-71
2022/05/14 00:40:48;;;;;;;4.77;3.83;;;16.80;52.00;;;;;;20793;6747;117239;-70
2022/05/14 00:43:23;;;;;;;5.03;3.60;;;16.40;52.60;;;;;;20885;6732;117899;-70
2022/05/14 00:46:00;;;;;;;5.18;4.32;;;16.10;53.10;;;;;;20650;6736;308371;-71
2022/05/14 00:48:35;;;;;;;4.33;4.00;;;16.20;52.40;;;;;;20866;6732;122741;-71
2022/05/14 00:51:14;;;;;;;4.37;3.80;;;16.00;52.80;;;;;;20764;6736;117880;-71
2022/05/14 00:53:49;;;;;;;5.50;4.60;;;15.80;53.70;;;;;;20627;6747;306833;-70
2022/05/14 00:56:25;;;;;;;5.37;4.87;;;15.90;53.60;;;;;;20627;6747;307078;-71
2022/05/14 00:59:07;;;;;;;8.20;4.33;;;16.20;53.00;;;;;;20858;6747;116902;-71
2022/05/14 01:01:43;;;;;;;4.53;4.10;;;16.10;53.30;;;;;;20758;6747;116985;-70
2022/05/14 01:04:19;;;;;;;4.83;4.53;;;15.70;54.10;;;;;;20769;6766;122875;-71
2022/05/14 01:06:54;;;;;;;7.00;4.57;;;15.50;54.90;;;;;;20801;6762;117784;-71
2022/05/14 01:09:30;;;;;;;5.30;4.40;;;15.30;55.50;;;;;;20788;6769;117569;-71
2022/05/14 01:12:05;;;;;;;6.50;5.37;;;15.20;56.00;;;;;;20441;6769;312879;-71
2022/05/14 01:14:43;;;;;;;6.05;5.30;;;15.50;55.30;;;;;;20684;6733;344510;-71
2022/05/14 01:17:17;;;;;;;5.83;5.23;;;16.20;53.40;;;;;;20687;6733;307468;-71
2022/05/14 01:19:53;;;;;;;5.33;4.70;;;16.20;53.40;;;;;;20906;6733;117474;-71
2022/05/14 01:22:29;;;;;;;5.47;4.97;;;16.00;53.90;;;;;;20707;6733;123361;-70
2022/05/14 01:28:20;;;;;;;6.30;4.87;;;15.80;54.40;;;;;;20464;6807;277100;-71
2022/05/14 01:30:56;;;;;;;5.57;5.10;;;16.40;53.00;;;;;;20579;6748;308202;-70
2022/05/14 01:33:31;;;;;;;4.77;4.47;;;16.40;52.90;;;;;;20783;6766;117182;-71
2022/05/14 01:36:07;;;;;;;5.00;4.60;;;16.10;53.40;;;;;;20784;6762;145787;-71
2022/05/14 01:38:44;;;;;;;5.55;5.10;;;15.80;54.10;;;;;;20573;6769;282160;-71
2022/05/14 01:41:19;;;;;;;6.30;5.07;;;15.80;53.60;;;;;;20493;6762;308664;-71
2022/05/14 01:43:55;;;;;;;6.67;4.73;;;16.10;53.00;;;;;;20795;6762;117191;-71
2022/05/14 01:46:31;;;;;;;5.03;4.63;;;15.90;53.60;;;;;;20620;6747;306643;-71
2022/05/14 01:49:06;;;;;;;4.90;4.40;;;15.90;53.30;;;;;;20838;6748;118615;-71
2022/05/14 01:51:43;;;;;;;5.70;5.17;;;15.70;53.70;;;;;;20516;6747;309020;-71
2022/05/14 01:54:19;;;;;;;6.90;4.90;;;15.80;53.60;;;;;;20618;6747;276808;-71
2022/05/14 01:56:54;;;;;;;5.30;4.80;;;16.00;52.90;;;;;;20634;6747;276340;-71
2022/05/14 01:59:30;;;;;;;4.70;4.30;;;16.20;52.70;;;;;;20784;6762;117501;-71
2022/05/14 02:02:06;;;;;;;4.90;4.40;;;16.00;53.40;;;;;;20637;6747;117959;-71
2022/05/14 02:04:50;;;;;;;5.30;4.90;;;15.60;54.20;;;;;;20632;6747;335670;-71
2022/05/14 02:07:17;;;;;;;6.37;5.53;;;15.70;53.80;;;;;;20650;6742;276758;-70
2022/05/14 02:09:52;;;;;;;7.77;5.20;;;16.00;53.20;;;;;;20816;6763;117519;-70
2022/05/14 02:12:28;;;;;;;5.37;4.83;;;15.80;53.60;;;;;;20371;6771;283515;-70
2022/05/14 02:15:04;;;;;;;6.33;5.57;;;15.90;53.40;;;;;;20592;6762;277034;-70
2022/05/14 02:17:39;;;;;;;5.53;5.03;;;16.10;52.90;;;;;;20523;6784;332574;-70
2022/05/14 02:20:16;;;;;;;6.03;5.20;;;16.20;52.50;;;;;;20492;6780;306077;-70
2022/05/14 02:22:51;;;;;;;6.67;5.30;;;16.30;52.20;;;;;;20535;6778;282638;-70
2022/05/14 02:25:26;;;;;;;6.00;5.50;;;16.40;52.20;;;;;;20607;6757;308097;-70
2022/05/14 02:28:02;;;;;;;6.50;5.27;;;16.40;52.00;;;;;;20585;6760;276743;-73
2022/05/14 02:30:37;;;;;;;6.87;5.60;;;16.50;52.00;;;;;;20555;6760;312174;-70
2022/05/14 02:33:13;;;;;;;6.20;5.62;;;16.50;52.20;;;;;;20559;6766;313581;-70
2022/05/14 02:35:48;;;;;;;7.00;5.37;;;16.50;52.20;;;;;;20731;6791;117310;-70
2022/05/14 02:38:25;;;;;;;6.33;5.20;;;16.20;53.00;;;;;;20865;6739;120790;-70
2022/05/14 02:41:00;;;;;;;6.07;5.57;;;15.70;53.90;;;;;;20541;6754;312864;-70
2022/05/14 02:43:36;;;;;;;8.00;6.10;;;15.70;53.70;;;;;;20662;6739;306258;-70
2022/05/14 02:46:12;;;;;;;5.80;5.20;;;15.90;53.20;;;;;;20870;6735;121794;-70
2022/05/14 02:48:46;;;;;;;5.40;4.90;;;15.70;53.70;;;;;;20883;6735;117356;-70
2022/05/14 02:51:22;;;;;;;5.68;5.20;;;15.40;54.60;;;;;;20506;6746;325406;-70
2022/05/14 02:53:57;;;;;;;5.97;5.23;;;15.50;54.30;;;;;;20832;6744;117293;-70
2022/05/14 02:56:33;;;;;;;6.00;5.60;;;15.40;54.60;;;;;;20681;6731;307108;-70
2022/05/14 02:59:09;;;;;;;5.97;5.37;;;15.70;53.60;;;;;;20674;6735;306541;-70
2022/05/14 03:01:48;;;;;;;5.95;5.53;;;15.70;53.60;;;;;;20528;6734;303819;-70
2022/05/14 03:04:24;;;;;;;4.93;4.53;;;15.60;53.70;;;;;;20871;6734;116950;-70
2022/05/14 03:07:00;;;;;;;6.37;5.67;;;15.60;53.70;;;;;;20678;6735;306221;-70
2022/05/14 03:09:36;;;;;;;6.00;5.60;;;15.70;53.40;;;;;;20674;6737;277158;-70
2022/05/14 03:12:11;;;;;;;5.60;5.20;;;15.80;52.80;;;;;;20655;6754;117436;-70
2022/05/14 03:14:46;;;;;;;5.43;5.03;;;15.60;53.30;;;;;;20820;6748;117796;-69
2022/05/14 03:17:22;;;;;;;6.75;5.90;;;15.10;54.20;;;;;;20659;6733;306748;-70
2022/05/14 03:19:58;;;;;;;5.53;5.03;;;15.20;53.90;;;;;;20866;6733;117085;-70
2022/05/14 03:22:33;;;;;;;6.50;5.13;;;15.00;54.30;;;;;;20638;6808;117650;-70
2022/05/14 03:25:09;;;;;;;6.40;5.80;;;14.70;55.20;;;;;;20655;6733;335074;-70
2022/05/14 03:27:44;;;;;;;5.87;5.40;;;14.90;54.90;;;;;;20774;6748;117548;-70
2022/05/14 03:30:21;;;;;;;6.55;5.97;;;14.90;54.90;;;;;;20598;6739;309252;-70
2022/05/14 03:32:56;;;;;;;6.00;5.70;;;14.90;54.90;;;;;;20823;6739;117178;-69
2022/05/14 03:35:33;;;;;;;5.80;5.50;;;14.50;55.70;;;;;;20853;6742;117031;-70
2022/05/14 03:38:08;;;;;;;5.30;4.53;;;14.50;56.10;;;;;;20825;6742;117911;-70
2022/05/14 03:40:44;;;;;;;6.43;5.72;;;14.30;56.70;;;;;;20560;6750;344337;-67
2022/05/14 03:43:28;;;;;;;5.77;5.37;;;14.50;55.80;;;;;;20545;6752;311901;-67
2022/05/14 03:45:58;;;;;;;5.70;5.20;;;14.90;54.70;;;;;;20661;6750;276966;-67
2022/05/14 03:48:31;;;;;;;5.72;5.22;;;15.30;53.40;;;;;;20597;6751;277752;-67
2022/05/14 03:51:07;;;;;;;6.10;5.17;;;15.30;53.30;;;;;;20561;6746;313210;-67
2022/05/14 03:53:43;;;;;;;6.37;5.10;;;15.50;52.60;;;;;;20532;6778;339102;-67
2022/05/14 03:56:18;;;;;;;5.27;4.87;;;15.50;52.20;;;;;;20768;6784;117347;-69
2022/05/14 03:58:54;;;;;;;5.50;5.00;;;14.90;54.80;;;;;;20879;6743;117009;-67
2022/05/14 04:01:31;;;;;;;5.87;5.40;;;14.80;54.10;;;;;;20557;6733;297053;-67
2022/05/14 04:04:06;;;;;;;5.13;4.73;;;15.00;53.80;;;;;;20772;6762;118025;-68
2022/05/14 04:06:41;;;;;;;6.00;5.07;;;14.80;54.50;;;;;;20575;6762;343887;-67
2022/05/14 04:09:17;;;;;;;5.73;4.70;;;15.00;53.40;;;;;;20816;6758;117281;-68
2022/05/14 04:11:53;;;;;;;5.70;5.25;;;14.90;54.00;;;;;;20445;6775;328180;-68
2022/05/14 04:14:28;;;;;;;5.50;5.10;;;15.00;53.40;;;;;;20672;6734;305608;-68
2022/05/14 04:17:04;;;;;;;4.80;4.50;;;15.20;52.80;;;;;;20892;6730;116967;-69
2022/05/14 04:19:39;;;;;;;5.65;5.10;;;15.00;53.30;;;;;;20661;6735;297055;-68
2022/05/14 04:22:15;;;;;;;5.63;5.23;;;15.00;52.70;;;;;;20511;6731;283793;-68
2022/05/14 04:24:50;;;;;;;6.30;5.40;;;15.20;52.60;;;;;;20681;6736;337780;-67
2022/05/14 04:27:26;;;;;;;5.03;4.60;;;15.40;52.20;;;;;;20850;6749;117916;-67
2022/05/14 04:30:01;;;;;;;5.07;4.67;;;15.10;52.70;;;;;;20811;6756;122808;-68
2022/05/14 04:32:38;;;;;;;5.70;4.90;;;14.50;54.70;;;;;;20624;6819;117567;-67
2022/05/14 04:35:13;;;;;;;5.57;5.03;;;14.50;54.70;;;;;;20850;6749;116984;-67
2022/05/14 04:37:49;;;;;;;5.85;5.20;;;14.30;55.50;;;;;;20665;6742;306063;-67
2022/05/14 04:40:24;;;;;;;6.03;5.43;;;14.50;55.30;;;;;;20617;6744;279069;-67
2022/05/14 04:43:00;;;;;;;5.95;5.45;;;14.90;54.20;;;;;;20733;6720;334931;-67
2022/05/14 04:45:36;;;;;;;5.17;4.80;;;15.20;53.50;;;;;;20949;6720;117347;-67
2022/05/14 04:48:12;;;;;;;5.68;5.30;;;15.10;53.60;;;;;;20645;6741;340382;-68
2022/05/14 04:50:47;;;;;;;5.80;5.30;;;15.10;53.60;;;;;;20862;6720;119399;-67
2022/05/14 04:53:23;;;;;;;5.57;4.87;;;15.00;54.10;;;;;;20935;6720;117386;-67
2022/05/14 04:55:59;;;;;;;5.33;4.83;;;14.60;54.70;;;;;;20936;6720;117117;-67
2022/05/14 04:58:34;;;;;;;6.03;5.45;;;14.40;55.50;;;;;;20713;6720;276615;-67
2022/05/14 05:01:10;;;;;;;6.20;5.70;;;14.70;55.30;;;;;;20594;6742;306034;-67
2022/05/14 05:03:45;;;;;;;5.37;4.97;;;15.10;54.60;;;;;;20877;6739;118215;-67
2022/05/14 05:06:23;;;;;;;5.67;5.10;;;15.00;54.70;;;;;;20894;6724;122550;-68
2022/05/14 05:08:57;;;;;;;8.47;5.30;;;14.60;56.80;;;;;;20927;6724;116926;-67
2022/05/14 05:11:33;;;;;;;5.93;5.43;;;14.50;56.00;;;;;;20554;6742;304099;-67
2022/05/14 05:14:08;;;;;;;6.20;5.70;;;14.80;55.60;;;;;;20657;6735;307128;-67
2022/05/14 05:16:44;;;;;;;5.50;5.20;;;15.20;54.70;;;;;;20879;6737;118044;-67
2022/05/14 05:19:19;;;;;;;5.97;5.50;;;15.10;54.80;;;;;;20733;6716;305687;-67
2022/05/14 05:21:55;;;;;;;5.60;4.60;;;15.30;54.80;;;;;;20776;6716;116984;-68
2022/05/14 05:24:32;;;;;;;5.03;4.70;;;15.20;55.10;;;;;;20933;6715;117336;-68
2022/05/14 05:27:08;;;;;;;4.70;4.30;;;14.90;55.80;;;;;;20915;6731;117404;-67
2022/05/14 05:29:43;;;;;;;5.20;4.80;;;14.80;56.50;;;;;;20677;6736;307409;-68
2022/05/14 05:32:19;;;;;;;5.83;5.33;;;15.00;55.80;;;;;;20435;6736;314372;-69
2022/05/14 05:34:55;;;;;;;7.00;5.23;;;15.40;55.80;;;;;;20884;6736;117137;-68
2022/05/14 05:37:31;;;;;;;5.40;4.90;;;15.40;55.10;;;;;;20620;6751;306804;-68
2022/05/14 05:40:06;;;;;;;5.47;4.90;;;15.60;55.00;;;;;;20848;6736;117100;-69
2022/05/14 05:42:43;;;;;;;5.20;4.90;;;15.30;55.90;;;;;;20831;6750;117170;-69
2022/05/14 05:45:19;;;;;;;5.27;4.87;;;15.20;55.80;;;;;;20844;6745;117513;-68
2022/05/14 05:47:54;;;;;;;5.43;4.70;;;15.10;56.40;;;;;;20833;6745;117782;-68
2022/05/14 05:50:30;;;;;;;4.90;4.60;;;15.00;56.80;;;;;;20795;6744;123472;-69
2022/05/14 05:53:06;;;;;;;4.90;4.60;;;14.90;57.20;;;;;;20780;6769;117106;-69
2022/05/14 05:58:38;;;;;;;5.63;5.17;;;15.30;57.10;;;;;;20584;6766;280076;-68
2022/05/14 06:01:14;;;;;;;5.30;4.80;;;15.30;57.10;;;;;;20743;6763;116993;-68
2022/05/14 06:03:51;;;;;;;5.23;4.90;;;15.40;57.50;;;;;;20905;6733;116923;-68
2022/05/14 06:06:26;;;;;;;5.27;4.87;;;15.40;57.50;;;;;;20669;6733;277500;-69
2022/05/14 06:09:04;;;;;;;5.00;4.60;;;15.70;57.00;;;;;;20680;6733;297981;-68
2022/05/14 06:11:37;;;;;;;4.30;4.10;;;16.20;55.50;;;;;;20752;6733;117488;-68
2022/05/14 06:14:12;;;;;;;4.97;3.90;;;16.30;55.60;;;;;;20873;6733;118209;-68
2022/05/14 06:16:48;;;;;;;4.70;4.40;;;16.20;56.10;;;;;;20686;6733;296528;-69
2022/05/14 06:19:24;;;;;;;4.97;4.57;;;17.10;55.00;;;;;;20680;6733;310228;-68
2022/05/14 06:22:00;;;;;;;4.67;4.37;;;17.10;55.00;;;;;;20706;6733;120806;-68
2022/05/14 06:24:35;;;;;;;4.67;4.20;;;17.20;55.20;;;;;;20613;6742;307988;-68
2022/05/14 06:27:11;;;;;;;5.00;4.60;;;17.60;54.40;;;;;;20826;6757;117171;-68
2022/05/14 06:29:47;;;;;;;4.33;3.93;;;18.40;56.20;;;;;;20833;6765;117192;-68
2022/05/14 06:32:26;;;;;;;4.00;3.70;;;18.40;56.10;;;;;;20672;6751;117596;-68
2022/05/14 06:34:58;;;;;;;4.40;4.07;;;18.90;56.30;;;;;;20878;6752;116914;-68
2022/05/14 06:37:35;;;;;;;4.40;4.10;;;20.40;50.00;;;;;;20658;6751;307704;-69
2022/05/14 06:40:11;;;;;;;4.70;4.10;;;20.40;49.90;;;;;;20651;6749;277828;-69
2022/05/14 06:42:47;;;;;;;4.30;4.00;;;22.40;46.00;;;;;;20662;6751;281122;-68
2022/05/14 06:45:23;;;;;;;4.30;4.00;;;22.30;45.30;;;;;;20867;6751;116769;-68
2022/05/14 06:47:58;;;;;;;4.62;4.20;;;22.60;46.70;;;;;;20647;6754;310894;-68
2022/05/14 06:50:34;;;;;;;3.87;3.67;;;23.00;44.60;;;;;;20692;6779;118767;-68
2022/05/14 06:53:09;;;;;;;5.17;4.10;;;23.20;45.80;;;;;;20595;6750;305869;-69
2022/05/14 06:55:45;;;;;;;3.90;3.60;;;23.50;42.70;;;;;;20747;6785;117750;-69
2022/05/14 06:58:21;;;;;;;4.27;3.97;;;23.50;44.20;;;;;;20489;6752;294242;-68
2022/05/14 07:00:56;;;;;;;4.80;4.20;;;23.70;42.50;;;;;;20456;6730;278985;-69
2022/05/14 07:06:44;;;;;;;5.83;4.00;;;23.90;43.60;;;;;;20859;6741;116862;-69
2022/05/14 07:09:19;;;;;;;4.00;3.70;;;23.60;44.70;;;;;;20665;6741;289090;-69
2022/05/14 07:11:56;;;;;;;4.27;3.77;;;23.60;42.70;;;;;;20402;6730;277686;-67
2022/05/14 07:14:31;;;;;;;4.67;3.70;;;23.70;41.70;;;;;;20821;6741;117425;-70
2022/05/14 07:17:08;;;;;;;5.17;3.87;;;23.50;42.90;;;;;;20855;6741;117045;-72
2022/05/14 07:19:42;;;;;;;3.60;3.40;;;23.10;43.70;;;;;;20877;6741;116509;-71
2022/05/14 07:22:18;;;;;;;4.30;4.00;;;22.80;44.70;;;;;;20532;6742;283657;-71
2022/05/14 07:24:54;;;;;;;3.70;3.50;;;22.80;43.40;;;;;;20809;6757;117603;-69
2022/05/14 07:27:30;;;;;;;3.87;3.50;;;22.70;43.30;;;;;;20806;6763;117207;-71
2022/05/14 07:30:06;;;;;;;3.57;3.27;;;22.50;44.10;;;;;;20824;6745;117086;-69
2022/05/14 07:32:41;;;;;;;4.05;3.65;;;22.40;44.80;;;;;;20605;6747;306081;-68
2022/05/14 07:35:18;;;;;;;4.00;3.10;;;22.80;43.90;;;;;;20837;6747;117202;-68
2022/05/14 07:37:53;;;;;;;3.37;3.07;;;22.70;43.70;;;;;;20848;6767;116358;-68
2022/05/14 07:40:29;;;;;;;5.20;3.30;;;22.70;44.40;;;;;;20749;6760;122645;-67
2022/05/14 07:43:04;;;;;;;3.83;3.40;;;22.70;44.60;;;;;;20632;6758;277039;-69
2022/05/14 07:45:43;;;;;;;4.47;3.15;;;23.00;42.00;;;;;;20578;6767;309471;-69
2022/05/14 07:48:20;;;;;;;3.73;3.23;;;23.50;41.40;;;;;;20565;6765;308347;-68
2022/05/14 07:50:55;;;;;;;4.15;2.95;;;24.20;39.80;;;;;;20558;6752;312900;-69
2022/05/14 07:53:31;;;;;;;6.75;3.00;;;24.20;39.80;;;;;;20631;6749;323143;-68
2022/05/14 07:56:08;;;;;;;3.67;3.00;;;24.40;39.20;;;;;;20823;6749;118266;-69
2022/05/14 07:58:46;;;;;;;3.90;2.47;;;24.50;38.80;;;;;;20547;6780;306599;-68
2022/05/14 08:01:18;;;;;;;2.73;2.53;;;24.50;38.70;;;;;;20743;6755;117105;-68
2022/05/14 08:03:54;;;;;;;2.80;1.70;;;24.50;40.00;;;;;;20824;6757;118400;-69
2022/05/14 08:06:30;;;;;;;2.13;1.73;;;24.20;39.10;;;;;;20744;6777;124839;-69
2022/05/14 08:09:06;;;;;;;3.77;2.03;;;24.20;39.10;;;;;;20726;6793;117273;-69
2022/05/14 08:11:41;;;;;;;4.33;2.50;;;24.20;39.50;;;;;;20687;6762;117735;-70
2022/05/14 08:14:17;;;;;;;2.33;2.00;;;24.10;40.40;;;;;;20844;6747;117366;-69
2022/05/14 08:16:53;;;;;;;2.40;2.20;;;24.60;38.60;;;;;;20547;6779;278219;-68
2022/05/14 08:19:29;;;;;;;2.77;2.13;;;24.60;38.60;;;;;;20769;6779;117602;-69
2022/05/14 08:25:00;;;;;;;2.00;1.90;;;25.20;36.80;;;;;;20918;6732;117535;-70
2022/05/14 08:27:44;;;;;;;1.90;1.80;;;25.30;37.70;;;;;;20703;6732;304263;-69
2022/05/14 08:30:17;;;;;;;2.03;1.10;;;25.50;33.80;;;;;;20871;6732;118044;-70
2022/05/14 08:32:53;;;;;;;3.28;1.55;;;25.50;35.50;;;;;;20643;6747;320470;-70
2022/05/14 08:35:29;;;;;;;1.97;1.40;;;25.80;32.70;;;;;;20555;6760;278723;-70
2022/05/14 08:38:04;;;;;;;1.40;1.23;;;26.10;32.30;;;;;;20786;6769;127543;-71
2022/05/14 08:40:40;;;;;;;2.65;1.35;;;26.10;33.70;;;;;;20492;6782;279545;-69
2022/05/14 08:43:18;;;;;;;5.63;1.50;;;26.30;32.50;;;;;;20705;6800;119234;-70
2022/05/14 08:45:55;;;;;;;2.30;1.50;;;26.30;31.50;;;;;;20576;6770;309139;-69
2022/05/14 08:48:30;;;;;;;2.27;1.20;;;26.30;31.60;;;;;;20733;6787;116864;-70
2022/05/14 08:51:16;;;;;;;2.87;1.10;;;26.30;33.60;;;;;;20757;6763;122982;-70
2022/05/14 08:53:51;;;;;;;1.80;1.30;;;26.30;34.10;;;;;;20820;6750;118371;-69
2022/05/14 08:56:27;;;;;;;2.43;1.50;;;26.20;34.50;;;;;;20672;6732;294539;-70
2022/05/14 08:59:25;;;;;;;1.90;1.47;;;26.50;32.20;;;;;;20855;6736;119073;-70
2022/05/14 09:02:01;;;;;;;3.78;1.75;;;26.60;33.90;;;;;;20469;6745;346541;-70
2022/05/14 09:04:36;;;;;;;2.10;1.70;;;26.90;32.50;;;;;;20733;6804;118465;-70
2022/05/14 09:07:12;;;;;;;1.67;1.50;;;27.00;33.40;;;;;;20852;6745;117055;-70
2022/05/14 09:09:53;;;;;;;1.77;1.50;;;26.80;34.00;;;;;;20668;6739;306234;-69
2022/05/14 09:12:29;;;;;;;2.23;1.40;;;27.00;33.80;;;;;;20743;6739;119696;-70
2022/05/14 09:15:05;;;;;;;2.77;1.80;;;27.10;34.10;;;;;;20897;6735;116974;-69
2022/05/14 09:17:40;;;;;;;2.27;2.00;;;27.00;34.10;;;;;;20893;6737;118279;-70
2022/05/14 09:20:23;;;;;;;1.70;1.60;;;26.80;35.00;;;;;;20866;6737;117623;-69
2022/05/14 09:23:00;;;;;;;2.70;1.75;;;27.10;32.20;;;;;;20745;6716;305445;-69
2022/05/14 09:25:35;;;;;;;3.10;1.90;;;27.10;32.20;;;;;;20739;6716;275755;-69
2022/05/14 09:28:11;;;;;;;7.40;2.05;;;27.50;31.10;;;;;;20711;6716;280448;-70
2022/05/14 09:30:46;;;;;;;3.07;1.67;;;27.80;31.20;;;;;;20686;6716;308058;-70
2022/05/14 09:33:24;;;;;;;4.90;1.60;;;28.00;31.20;;;;;;20905;6735;116452;-67
2022/05/14 09:35:57;;;;;;;3.10;1.80;;;27.80;32.50;;;;;;20741;6720;305239;-69
2022/05/14 09:38:33;;;;;;;4.60;1.80;;;27.80;30.10;;;;;;20709;6720;305220;-68
2022/05/14 09:41:12;;;;;;;3.03;1.97;;;27.90;29.90;;;;;;20656;6720;306113;-69
2022/05/14 09:43:47;;;;;;;4.55;2.03;;;27.90;30.40;;;;;;20729;6720;305514;-68
2022/05/14 09:46:23;;;;;;;4.17;1.80;;;27.80;31.20;;;;;;20943;6720;118485;-68
2022/05/14 09:49:02;;;;;;;3.27;1.63;;;27.80;31.20;;;;;;20948;6720;120777;-68
2022/05/14 09:52:01;;;;;;;4.33;1.73;;;27.40;32.30;;;;;;20791;6720;116924;-69
2022/05/14 09:54:46;;;;;;;1.70;1.60;;;27.20;33.30;;;;;;20610;6750;281150;-67
2022/05/14 09:57:32;;;;;;;1.87;1.70;;;27.40;32.10;;;;;;20562;6748;306368;-68
2022/05/14 10:00:21;;;;;;;1.97;1.87;;;27.70;30.90;;;;;;20638;6745;277062;-68
2022/05/14 10:03:19;;;;;;;2.63;1.70;;;27.90;30.50;;;;;;20859;6735;117332;-70
2022/05/14 10:06:24;;;;;;;2.20;1.50;;;27.80;31.90;;;;;;20861;6737;117462;-68
2022/05/14 10:09:13;;;;;;;1.93;1.53;;;27.50;33.30;;;;;;20876;6735;117631;-69
2022/05/14 10:11:52;;;;;;;2.00;1.60;;;27.50;34.20;;;;;;20584;6715;311076;-69
2022/05/14 10:14:47;;;;;;;1.97;1.87;;;27.70;31.20;;;;;;20800;6792;118375;-69
2022/05/14 10:17:32;;;;;;;2.28;1.77;;;27.80;32.80;;;;;;20664;6731;331679;-69
2022/05/14 10:20:24;;;;;;;2.90;2.00;;;28.00;32.10;;;;;;20635;6736;307186;-70
2022/05/14 10:29:53;;;;;;;2.03;1.80;;;28.40;32.30;;;;;;20715;6720;305398;-70
2022/05/14 10:32:32;;;;;;;2.67;1.90;;;28.50;30.60;;;;;;20466;6720;309048;-68
2022/05/14 10:35:27;;;;;;;6.03;2.20;;;28.80;31.70;;;;;;20827;6750;117034;-68
2022/05/14 10:38:06;;;;;;;4.30;2.10;;;28.80;32.10;;;;;;20796;6752;144858;-70
2022/05/14 10:40:45;;;;;;;2.87;1.80;;;28.50;32.70;;;;;;20744;6762;117705;-69
2022/05/14 10:43:23;;;;;;;5.43;2.00;;;28.30;32.90;;;;;;20610;6744;307017;-70
2022/05/14 10:45:59;;;;;;;3.03;1.93;;;28.50;32.00;;;;;;20538;6771;310863;-68
2022/05/14 10:48:35;;;;;;;2.10;1.90;;;28.80;32.70;;;;;;20734;6776;118203;-69
2022/05/14 10:51:11;;;;;;;3.30;1.77;;;28.80;32.30;;;;;;20677;6767;118359;-68
2022/05/14 10:53:46;;;;;;;2.00;1.70;;;28.70;33.00;;;;;;20768;6769;123049;-68
2022/05/14 10:56:25;;;;;;;1.87;1.63;;;28.50;33.10;;;;;;20626;6754;439112;-69
2022/05/14 10:59:05;;;;;;;3.73;1.90;;;28.60;30.70;;;;;;20845;6754;117482;-68
2022/05/14 11:01:53;;;;;;;2.47;1.83;;;28.60;31.90;;;;;;20532;6769;307705;-68
2022/05/14 11:04:31;;;;;;;2.70;1.70;;;28.70;31.40;;;;;;20856;6742;122487;-69
2022/05/14 11:07:07;;;;;;;2.67;2.53;;;28.60;32.20;;;;;;20884;6742;116875;-69
2022/05/14 11:09:42;;;;;;;4.90;1.60;;;28.40;32.50;;;;;;20883;6738;118433;-68
2022/05/14 11:12:18;;;;;;;4.93;1.80;;;28.30;32.90;;;;;;20678;6738;117398;-69
2022/05/14 11:14:54;;;;;;;4.03;1.83;;;28.10;32.80;;;;;;20822;6757;118256;-68
2022/05/14 11:17:33;;;;;;;2.10;1.87;;;28.00;33.40;;;;;;20774;6757;122988;-68
2022/05/14 11:20:08;;;;;;;1.50;1.40;;;28.00;33.90;;;;;;20718;6786;120551;-70
2022/05/14 11:22:50;;;;;;;2.50;1.90;;;28.00;33.80;;;;;;20893;6733;117162;-69
2022/05/14 11:25:26;;;;;;;2.80;1.53;;;27.90;33.50;;;;;;20887;6733;117063;-71
2022/05/14 11:28:12;;;;;;;2.30;2.10;;;27.90;33.70;;;;;;20680;6733;306037;-69
2022/05/14 11:30:54;;;;;;;2.17;1.50;;;28.10;31.60;;;;;;20844;6733;116930;-69
2022/05/14 11:33:31;;;;;;;2.27;1.70;;;28.10;32.40;;;;;;20890;6733;117046;-69
2022/05/14 11:36:12;;;;;;;1.67;1.53;;;28.10;32.30;;;;;;20871;6733;120161;-69
2022/05/14 11:38:51;;;;;;;2.10;1.73;;;28.00;32.50;;;;;;20675;6733;275808;-68
2022/05/14 11:41:30;;;;;;;3.60;1.50;;;28.20;30.10;;;;;;20764;6787;122730;-70
2022/05/14 11:44:06;;;;;;;1.90;1.57;;;28.30;31.00;;;;;;20601;6739;278086;-69
2022/05/14 11:46:44;;;;;;;1.57;1.47;;;28.40;28.90;;;;;;20809;6754;118965;-68
2022/05/14 11:49:33;;;;;;;2.50;1.87;;;28.20;28.20;;;;;;20667;6736;278281;-68
2022/05/14 11:52:13;;;;;;;2.63;1.70;;;28.40;27.30;;;;;;20486;6736;312324;-68
2022/05/14 11:55:12;;;;;;;1.77;1.67;;;28.30;27.20;;;;;;20553;6800;117037;-68
2022/05/14 11:57:47;;;;;;;1.57;1.47;;;28.20;28.40;;;;;;20861;6743;117411;-69
2022/05/14 12:00:29;;;;;;;3.90;1.70;;;27.90;29.10;;;;;;20604;6743;306637;-70
2022/05/14 12:03:08;;;;;;;1.93;1.40;;;27.80;28.00;;;;;;20886;6736;119046;-69
2022/05/14 12:05:50;;;;;;;2.27;1.60;;;27.70;28.70;;;;;;20871;6736;123642;-73
2022/05/14 12:08:49;;;;;;;2.37;1.67;;;27.50;29.00;;;;;;20898;6736;119421;-69
2022/05/14 12:11:41;;;;;;;1.77;1.67;;;27.30;29.70;;;;;;20563;6720;278537;-68
2022/05/14 12:14:17;;;;;;;4.67;1.80;;;27.50;30.80;;;;;;20867;6720;119995;-68
2022/05/14 12:16:59;;;;;;;2.67;1.70;;;27.40;30.70;;;;;;20603;6736;305828;-69
2022/05/14 12:19:34;;;;;;;2.20;1.77;;;27.50;28.90;;;;;;20587;6757;306543;-69
2022/05/14 12:22:20;;;;;;;3.97;1.70;;;27.80;28.20;;;;;;20704;6742;116986;-69
2022/05/14 12:24:56;;;;;;;1.57;1.40;;;27.50;29.40;;;;;;20821;6757;117086;-69
2022/05/14 12:27:32;;;;;;;2.83;1.63;;;27.50;29.30;;;;;;20816;6745;118362;-71
2022/05/14 12:30:14;;;;;;;1.80;1.43;;;27.30;29.70;;;;;;20797;6754;130563;-70
2022/05/14 12:35:35;;;;;;;3.63;1.77;;;26.90;30.70;;;;;;20310;6791;311378;-71
2022/05/14 12:38:10;;;;;;;2.00;1.37;;;27.10;29.30;;;;;;20890;6735;144368;-71
2022/05/14 12:40:46;;;;;;;2.33;1.80;;;27.20;29.80;;;;;;20789;6747;118941;-71
2022/05/14 12:43:22;;;;;;;3.43;1.20;;;27.00;30.40;;;;;;20837;6747;116882;-72
2022/05/14 12:46:07;;;;;;;1.67;1.40;;;27.00;30.70;;;;;;20899;6729;116991;-75
2022/05/14 12:48:43;;;;;;;2.87;1.50;;;26.90;30.90;;;;;;20892;6729;118144;-72
2022/05/14 12:51:18;;;;;;;3.83;1.60;;;26.90;31.30;;;;;;20789;6737;117368;-71
2022/05/14 12:53:54;;;;;;;2.30;1.53;;;26.80;31.40;;;;;;20688;6727;287867;-71
2022/05/14 12:56:29;;;;;;;1.30;1.20;;;27.00;28.40;;;;;;20831;6742;118396;-71
2022/05/14 12:59:05;;;;;;;1.70;1.33;;;27.20;30.10;;;;;;20614;6737;305410;-71
2022/05/14 13:01:41;;;;;;;3.53;1.50;;;27.70;29.00;;;;;;20448;6762;309201;-70
2022/05/14 13:04:18;;;;;;;2.20;1.40;;;27.70;29.00;;;;;;20560;6745;279583;-72
2022/05/14 13:06:52;;;;;;;1.87;1.30;;;27.90;29.70;;;;;;20588;6759;276338;-71
2022/05/14 13:09:28;;;;;;;2.15;1.52;;;28.10;28.10;;;;;;20569;6756;318365;-72
2022/05/14 13:12:03;;;;;;;1.87;1.50;;;28.30;28.40;;;;;;20428;6756;311263;-72
2022/05/14 13:14:39;;;;;;;2.50;1.00;;;28.40;29.50;;;;;;20827;6745;117163;-73
2022/05/14 13:17:15;;;;;;;2.40;1.70;;;28.10;27.90;;;;;;20549;6756;276808;-71
2022/05/14 13:19:51;;;;;;;2.03;1.20;;;28.10;27.90;;;;;;20344;6774;305992;-70
2022/05/14 13:22:33;;;;;;;2.50;1.43;;;28.10;27.30;;;;;;20314;6771;315248;-74
2022/05/14 13:25:29;;;;;;;1.93;1.50;;;28.20;27.50;;;;;;20753;6771;123361;-72
2022/05/14 13:28:17;;;;;;;3.57;1.50;;;28.00;28.70;;;;;;20782;6756;123419;-71
2022/05/14 13:30:52;;;;;;;3.00;1.97;;;27.70;29.90;;;;;;20724;6756;117538;-72
2022/05/14 13:33:28;;;;;;;3.43;2.00;;;27.40;31.00;;;;;;20579;6756;304436;-72
2022/05/14 13:39:03;;;;;;;2.87;1.87;;;27.30;31.90;;;;;;20592;6756;276847;-72
2022/05/14 13:41:44;;;;;;;7.13;2.20;;;27.40;30.50;;;;;;20649;6756;119200;-71
2022/05/14 13:44:24;;;;;;;7.73;2.00;;;26.90;32.80;;;;;;20763;6756;117012;-72
2022/05/14 13:47:00;;;;;;;3.65;1.90;;;26.90;32.80;;;;;;20565;6755;276799;-72
2022/05/14 13:49:36;;;;;;;3.05;1.90;;;27.00;31.40;;;;;;20543;6759;307668;-72
2022/05/14 13:52:17;;;;;;;1.80;1.70;;;27.30;31.90;;;;;;20252;6756;310762;-71
2022/05/14 13:54:47;;;;;;;2.00;1.80;;;27.50;30.20;;;;;;20534;6756;310999;-72